Time;durP1;ratioP1;P1;durP2;ratioP2;P2;SDS_P1;SDS_P2;PMS_P1;PMS_P2;Temp;Humidity;BMP_temperature;BMP_pressure;BME280_temperature;BME280_humidity;BME280_pressure;Samples;Min_cycle;Max_cycle;Signal;HPM_P1;HPM_P2
2022/07/24 00:01:02;;;;;;;605.17;565.58;;;14.90;99.90;;;;;;5092091;28;20044;-60
2022/07/24 00:03:28;;;;;;;499.35;471.63;;;14.90;99.90;;;;;;5083384;28;20056;-60
2022/07/24 00:05:54;;;;;;;463.42;438.58;;;14.90;99.90;;;;;;5072600;28;20494;-60
2022/07/24 00:08:19;;;;;;;531.08;499.98;;;14.90;99.90;;;;;;5085554;28;20110;-60
2022/07/24 00:10:45;;;;;;;496.85;468.90;;;14.90;99.90;;;;;;5072471;28;20071;-60
2022/07/24 00:13:11;;;;;;;487.35;460.35;;;14.90;99.90;;;;;;5072321;28;20052;-60
2022/07/24 00:15:37;;;;;;;566.78;530.03;;;14.90;99.90;;;;;;5079058;28;20115;-60
2022/07/24 00:18:03;;;;;;;494.05;466.23;;;14.80;99.90;;;;;;5092803;28;20075;-60
2022/07/24 00:20:29;;;;;;;492.38;465.00;;;14.80;99.90;;;;;;5079975;28;20044;-60
2022/07/24 00:22:54;;;;;;;540.15;509.42;;;14.80;99.90;;;;;;5071973;28;20520;-60
2022/07/24 00:25:20;;;;;;;494.15;466.48;;;14.80;99.90;;;;;;5069006;28;20540;-60
2022/07/24 00:27:46;;;;;;;411.45;390.42;;;14.70;99.90;;;;;;5092227;28;20079;-60
2022/07/24 00:30:12;;;;;;;536.03;506.25;;;14.70;99.90;;;;;;5091644;28;20047;-60
2022/07/24 00:32:38;;;;;;;524.10;494.20;;;14.70;99.90;;;;;;5082592;28;20045;-60
2022/07/24 00:35:04;;;;;;;541.50;511.05;;;14.70;99.90;;;;;;5092301;28;20110;-60
2022/07/24 00:37:30;;;;;;;527.10;496.30;;;14.70;99.90;;;;;;5092004;28;20052;-60
2022/07/24 00:39:56;;;;;;;593.90;555.72;;;14.70;99.90;;;;;;5074357;28;20044;-60
2022/07/24 00:42:21;;;;;;;418.48;396.92;;;14.70;99.90;;;;;;5091461;28;20051;-60
2022/07/24 00:44:47;;;;;;;527.22;496.13;;;14.70;99.90;;;;;;5090871;28;20059;-60
2022/07/24 00:47:13;;;;;;;541.65;509.92;;;14.70;99.90;;;;;;5090395;28;20129;-60
2022/07/24 00:49:38;;;;;;;513.42;483.48;;;14.70;99.90;;;;;;5092359;28;20037;-60
2022/07/24 00:52:04;;;;;;;454.90;428.70;;;14.60;99.90;;;;;;5091321;28;20052;-60
2022/07/24 00:54:30;;;;;;;501.58;472.08;;;14.60;99.90;;;;;;5088001;28;20037;-60
2022/07/24 00:56:56;;;;;;;445.02;419.77;;;14.60;99.90;;;;;;5066505;28;20474;-60
2022/07/24 00:59:22;;;;;;;413.10;391.73;;;14.60;99.90;;;;;;5071047;28;20040;-60
2022/07/24 01:01:48;;;;;;;442.48;416.38;;;14.50;99.90;;;;;;5074923;28;20111;-60
2022/07/24 01:04:15;;;;;;;452.10;426.50;;;14.50;99.90;;;;;;5074353;28;20036;-60
2022/07/24 01:06:42;;;;;;;421.60;398.60;;;14.50;99.90;;;;;;5074586;28;20052;-60
2022/07/24 01:09:08;;;;;;;430.73;406.67;;;14.50;99.90;;;;;;5075141;28;20046;-60
2022/07/24 01:11:35;;;;;;;486.95;458.85;;;14.50;99.90;;;;;;5073930;28;20424;-60
2022/07/24 01:14:01;;;;;;;533.08;497.25;;;14.50;99.90;;;;;;5073971;28;20045;-60
2022/07/24 01:16:27;;;;;;;513.50;482.88;;;14.50;99.90;;;;;;5074726;28;20414;-60
2022/07/24 01:18:52;;;;;;;498.90;467.40;;;14.50;99.90;;;;;;5075722;28;20061;-60
2022/07/24 01:21:18;;;;;;;396.85;376.88;;;14.50;99.90;;;;;;5056389;28;20048;-60
2022/07/24 01:23:44;;;;;;;364.83;346.77;;;14.50;99.90;;;;;;5057001;28;20048;-60
2022/07/24 01:26:09;;;;;;;456.90;431.42;;;14.50;99.90;;;;;;5080182;28;20051;-60
2022/07/24 01:28:36;;;;;;;417.40;395.45;;;14.40;99.90;;;;;;5095364;28;20063;-60
2022/07/24 01:31:02;;;;;;;415.17;393.10;;;14.50;99.90;;;;;;5095686;28;20047;-60
2022/07/24 01:33:28;;;;;;;426.75;403.80;;;14.50;99.90;;;;;;5076124;28;20056;-60
2022/07/24 01:35:54;;;;;;;420.17;396.17;;;14.50;99.90;;;;;;5087962;28;20051;-60
2022/07/24 01:38:20;;;;;;;373.23;353.92;;;14.50;99.90;;;;;;5095413;28;20054;-60
2022/07/24 01:40:46;;;;;;;383.52;362.23;;;14.50;99.90;;;;;;5094423;28;20090;-60
2022/07/24 01:43:11;;;;;;;376.67;357.33;;;14.50;99.90;;;;;;5094118;28;20048;-60
2022/07/24 01:45:37;;;;;;;398.95;376.42;;;14.50;99.90;;;;;;5091979;28;20050;-60
2022/07/24 01:48:04;;;;;;;294.02;280.35;;;14.50;99.90;;;;;;5094738;28;20048;-60
2022/07/24 01:50:30;;;;;;;464.00;435.50;;;14.50;99.90;;;;;;5095000;28;20050;-60
2022/07/24 01:52:57;;;;;;;320.13;303.23;;;14.50;99.90;;;;;;5086550;28;20457;-60
2022/07/24 01:55:23;;;;;;;297.75;283.35;;;14.50;99.90;;;;;;5074360;28;20132;-60
2022/07/24 01:57:49;;;;;;;373.98;354.65;;;14.50;99.90;;;;;;5074654;28;20116;-60
2022/07/24 02:00:16;;;;;;;343.33;325.90;;;14.50;99.90;;;;;;5073736;28;20497;-60
2022/07/24 02:02:43;;;;;;;370.77;349.88;;;14.50;99.90;;;;;;5066570;28;20119;-60
2022/07/24 02:05:12;;;;;;;354.55;335.73;;;14.40;99.90;;;;;;5073526;28;20071;-60
2022/07/24 02:07:39;;;;;;;371.02;351.50;;;14.40;99.90;;;;;;5073173;28;20056;-60
2022/07/24 02:10:05;;;;;;;352.15;334.63;;;14.40;99.90;;;;;;5076319;28;20036;-60
2022/07/24 02:12:30;;;;;;;435.58;410.85;;;14.40;99.90;;;;;;5090416;28;20064;-60
2022/07/24 02:14:56;;;;;;;401.83;378.98;;;14.40;99.90;;;;;;5073808;28;20062;-60
2022/07/24 02:17:22;;;;;;;406.70;384.75;;;14.40;99.90;;;;;;5074532;28;20135;-60
2022/07/24 02:19:48;;;;;;;368.77;349.42;;;14.40;99.90;;;;;;5073634;28;20045;-60
2022/07/24 02:22:14;;;;;;;332.23;315.00;;;14.30;99.90;;;;;;5073613;28;20099;-60
2022/07/24 02:24:39;;;;;;;378.85;357.63;;;14.30;99.90;;;;;;5074108;28;20115;-60
2022/07/24 02:27:05;;;;;;;408.02;385.35;;;14.30;99.90;;;;;;5074012;28;20071;-60
2022/07/24 02:29:31;;;;;;;369.25;350.80;;;14.30;99.90;;;;;;5090778;28;20036;-60
2022/07/24 02:31:57;;;;;;;349.45;330.95;;;14.30;99.90;;;;;;5088300;28;20056;-60
2022/07/24 02:34:22;;;;;;;346.20;327.75;;;14.30;99.90;;;;;;5073719;28;20047;-60
2022/07/24 02:36:48;;;;;;;447.38;421.67;;;14.30;99.90;;;;;;5077421;28;20047;-60
2022/07/24 02:39:14;;;;;;;399.33;377.38;;;14.40;99.90;;;;;;5094136;28;20435;-60
2022/07/24 02:41:39;;;;;;;433.27;407.00;;;14.40;99.90;;;;;;5093761;28;20052;-60
2022/07/24 02:44:05;;;;;;;453.27;428.05;;;14.30;99.90;;;;;;5093517;28;20395;-60
2022/07/24 02:46:31;;;;;;;404.65;380.52;;;14.30;99.90;;;;;;5090290;28;20090;-60
2022/07/24 02:48:57;;;;;;;435.35;412.08;;;14.30;99.90;;;;;;5089340;28;20045;-60
2022/07/24 02:51:22;;;;;;;452.88;424.52;;;14.30;99.90;;;;;;5072939;28;20044;-60
2022/07/24 02:53:48;;;;;;;420.98;396.77;;;14.30;99.90;;;;;;5073450;28;20596;-60
2022/07/24 02:56:14;;;;;;;405.08;381.80;;;14.30;99.90;;;;;;5073092;28;20072;-60
2022/07/24 02:58:39;;;;;;;400.85;377.90;;;14.40;99.90;;;;;;5072827;28;20048;-60
2022/07/24 03:01:06;;;;;;;404.63;381.35;;;14.40;99.90;;;;;;5073655;28;20101;-60
2022/07/24 03:03:32;;;;;;;457.02;429.42;;;14.40;99.90;;;;;;5076046;28;20055;-60
2022/07/24 03:05:57;;;;;;;404.75;380.90;;;14.40;99.90;;;;;;5079306;28;20037;-60
2022/07/24 03:08:23;;;;;;;470.73;442.42;;;14.40;99.90;;;;;;5067729;28;20041;-60
2022/07/24 03:10:49;;;;;;;507.00;473.83;;;14.40;99.90;;;;;;5069387;28;20056;-60
2022/07/24 03:13:15;;;;;;;475.70;445.90;;;14.40;99.90;;;;;;5058203;28;20049;-60
2022/07/24 03:15:41;;;;;;;465.40;435.88;;;14.40;99.90;;;;;;5073453;28;20041;-60
2022/07/24 03:18:07;;;;;;;514.88;481.08;;;14.40;99.90;;;;;;5071937;28;20498;-60
2022/07/24 03:20:32;;;;;;;474.02;443.85;;;14.40;99.90;;;;;;5067950;28;20135;-60
2022/07/24 03:22:58;;;;;;;440.20;414.90;;;14.40;99.90;;;;;;5088493;28;20115;-60
2022/07/24 03:25:24;;;;;;;489.00;458.65;;;14.40;99.90;;;;;;5092513;28;20425;-60
2022/07/24 03:27:50;;;;;;;409.30;385.30;;;14.50;99.90;;;;;;5093441;28;20386;-60
2022/07/24 03:30:16;;;;;;;407.35;384.17;;;14.50;99.90;;;;;;5092680;28;20048;-60
2022/07/24 03:32:43;;;;;;;390.73;369.05;;;14.60;99.90;;;;;;5079980;28;20489;-60
2022/07/24 03:35:09;;;;;;;433.98;408.67;;;14.60;99.90;;;;;;5073238;28;20040;-60
2022/07/24 03:37:35;;;;;;;510.20;478.50;;;14.70;99.90;;;;;;5054152;28;20047;-60
2022/07/24 03:40:01;;;;;;;498.17;466.85;;;14.70;99.90;;;;;;5063097;28;20047;-60
2022/07/24 03:42:27;;;;;;;519.55;487.10;;;14.70;99.90;;;;;;5060575;28;20061;-60
2022/07/24 03:44:53;;;;;;;495.30;464.52;;;14.80;99.90;;;;;;5046384;28;20071;-60
2022/07/24 03:47:19;;;;;;;523.75;493.45;;;14.80;99.90;;;;;;5045947;28;20041;-60
2022/07/24 03:49:45;;;;;;;485.58;456.05;;;14.90;99.90;;;;;;5045156;28;20133;-60
2022/07/24 03:52:10;;;;;;;532.63;499.27;;;14.90;99.90;;;;;;5045819;28;20072;-60
2022/07/24 03:54:36;;;;;;;461.42;434.60;;;14.90;99.90;;;;;;5044353;28;20073;-59
2022/07/24 03:57:02;;;;;;;510.52;479.33;;;15.00;99.90;;;;;;5036192;28;20485;-60
2022/07/24 03:59:28;;;;;;;533.35;501.63;;;15.00;99.90;;;;;;5052118;28;20122;-59
2022/07/24 04:01:54;;;;;;;482.30;453.17;;;15.20;99.90;;;;;;5051213;28;20068;-60
2022/07/24 04:04:20;;;;;;;565.53;529.45;;;15.10;99.90;;;;;;5051543;28;20549;-60
2022/07/24 04:06:46;;;;;;;535.67;502.75;;;15.10;99.90;;;;;;5051353;28;20120;-60
2022/07/24 04:09:12;;;;;;;470.58;443.35;;;15.20;99.90;;;;;;5051179;28;20471;-60
2022/07/24 04:11:38;;;;;;;526.88;494.25;;;15.20;99.90;;;;;;5051274;28;20442;-60
2022/07/24 04:14:04;;;;;;;423.88;400.33;;;15.30;99.90;;;;;;5050677;28;20045;-60
2022/07/24 04:16:30;;;;;;;413.13;389.73;;;15.30;99.90;;;;;;5051131;28;20045;-59
2022/07/24 04:18:56;;;;;;;443.10;416.70;;;15.30;99.90;;;;;;5051555;28;20041;-60
2022/07/24 04:21:21;;;;;;;530.83;497.90;;;15.40;99.90;;;;;;5050978;28;20406;-60
2022/07/24 04:23:47;;;;;;;531.00;498.80;;;15.40;99.90;;;;;;5033546;28;20471;-60
2022/07/24 04:26:13;;;;;;;461.00;436.15;;;15.40;99.90;;;;;;5051516;28;20053;-60
2022/07/24 04:28:39;;;;;;;499.85;470.20;;;15.40;99.90;;;;;;5050623;28;20041;-60
2022/07/24 04:31:04;;;;;;;521.80;490.38;;;15.40;99.90;;;;;;5052012;28;20052;-60
2022/07/24 04:33:30;;;;;;;454.23;428.90;;;15.50;99.90;;;;;;5035911;28;20045;-60
2022/07/24 04:35:56;;;;;;;502.80;473.83;;;15.50;99.90;;;;;;5055160;28;20048;-60
2022/07/24 04:38:22;;;;;;;423.55;398.92;;;15.50;99.90;;;;;;5056030;28;20099;-60
2022/07/24 04:40:47;;;;;;;413.83;391.85;;;15.50;99.90;;;;;;5056609;28;20072;-60
2022/07/24 04:43:13;;;;;;;460.95;433.75;;;15.50;99.90;;;;;;5053938;28;20060;-60
2022/07/24 04:45:39;;;;;;;360.52;342.27;;;15.50;99.90;;;;;;5037389;28;20067;-60
2022/07/24 04:48:05;;;;;;;367.10;348.23;;;15.50;99.90;;;;;;5054987;28;20380;-60
2022/07/24 04:50:31;;;;;;;407.02;384.95;;;15.50;99.90;;;;;;5054280;28;20037;-60
2022/07/24 04:52:57;;;;;;;536.83;503.52;;;15.50;99.90;;;;;;5054910;28;20045;-60
2022/07/24 04:55:22;;;;;;;552.47;517.00;;;15.60;99.90;;;;;;5053817;28;20538;-60
2022/07/24 04:57:48;;;;;;;532.20;499.67;;;15.70;99.90;;;;;;5052570;28;20475;-60
2022/07/24 05:00:14;;;;;;;535.28;503.08;;;15.70;99.90;;;;;;5056262;28;20037;-60
2022/07/24 05:02:40;;;;;;;505.50;474.98;;;15.80;99.90;;;;;;5036750;28;20044;-60
2022/07/24 05:05:06;;;;;;;495.15;465.92;;;15.80;99.90;;;;;;5054077;28;20048;-60
2022/07/24 05:07:32;;;;;;;422.95;399.92;;;15.90;99.90;;;;;;5055133;28;20037;-60
2022/07/24 05:09:58;;;;;;;571.35;537.25;;;15.90;99.90;;;;;;5053991;28;20056;-60
2022/07/24 05:12:25;;;;;;;530.95;500.25;;;16.00;99.90;;;;;;5054185;28;20091;-60
2022/07/24 05:14:51;;;;;;;451.48;426.58;;;16.10;99.90;;;;;;5054661;28;20045;-60
2022/07/24 05:17:16;;;;;;;495.85;468.38;;;16.10;99.90;;;;;;5055065;28;20079;-60
2022/07/24 05:19:42;;;;;;;496.30;468.70;;;16.20;99.90;;;;;;5054303;28;20132;-60
2022/07/24 05:22:08;;;;;;;496.17;468.80;;;16.20;99.90;;;;;;5036832;28;20036;-60
2022/07/24 05:24:34;;;;;;;553.92;522.10;;;16.30;99.90;;;;;;5053699;28;20083;-60
2022/07/24 05:26:59;;;;;;;547.38;515.95;;;16.30;99.90;;;;;;5054350;28;20040;-60
2022/07/24 05:29:25;;;;;;;431.52;409.48;;;16.50;99.90;;;;;;5054312;28;20037;-60
2022/07/24 05:31:54;;;;;;;482.38;455.17;;;16.60;99.90;;;;;;5053056;28;20476;-60
2022/07/24 05:34:21;;;;;;;461.60;436.77;;;16.70;99.90;;;;;;5037433;28;20049;-60
2022/07/24 05:36:47;;;;;;;497.00;468.73;;;16.80;99.90;;;;;;5054505;28;20040;-60
2022/07/24 05:39:12;;;;;;;534.88;504.17;;;16.90;99.90;;;;;;5035905;28;20049;-60
2022/07/24 05:41:38;;;;;;;591.42;555.65;;;16.90;99.90;;;;;;5055632;28;20416;-60
2022/07/24 05:44:05;;;;;;;489.17;460.17;;;17.00;99.90;;;;;;5075486;28;20119;-60
2022/07/24 05:46:31;;;;;;;461.33;435.23;;;17.00;99.90;;;;;;5069881;28;20045;-60
2022/07/24 05:48:57;;;;;;;526.83;496.10;;;17.00;99.90;;;;;;5070707;28;20136;-60
2022/07/24 05:51:23;;;;;;;484.48;458.92;;;17.00;99.90;;;;;;5070760;28;20119;-60
2022/07/24 05:53:49;;;;;;;475.90;449.63;;;17.10;99.90;;;;;;5068038;28;20068;-60
2022/07/24 05:56:15;;;;;;;461.98;438.42;;;17.30;99.90;;;;;;5070034;28;20047;-60
2022/07/24 05:58:40;;;;;;;614.28;575.17;;;17.50;99.90;;;;;;5067816;28;20045;-60
2022/07/24 06:01:06;;;;;;;490.17;462.85;;;17.70;99.90;;;;;;5068326;28;20075;-60
2022/07/24 06:03:32;;;;;;;581.78;548.13;;;17.80;99.90;;;;;;5070645;28;20079;-60
2022/07/24 06:05:58;;;;;;;530.22;501.77;;;18.00;99.90;;;;;;5056241;28;20068;-60
2022/07/24 06:08:24;;;;;;;562.08;531.55;;;18.10;99.90;;;;;;5072423;28;20042;-60
2022/07/24 06:10:49;;;;;;;522.13;494.35;;;18.30;99.90;;;;;;5065627;28;20089;-60
2022/07/24 06:13:15;;;;;;;;;;;18.40;99.90;;;;;;5067534;28;20124;-60
2022/07/24 06:15:41;;;;;;;;;;;18.40;99.90;;;;;;5067039;28;19996;-60
2022/07/24 06:18:06;;;;;;;;;;;18.30;99.90;;;;;;5065350;28;19920;-60
2022/07/24 06:20:32;;;;;;;;;;;18.30;99.90;;;;;;5065607;28;19920;-60
2022/07/24 06:22:58;;;;;;;;;;;18.30;99.90;;;;;;5066895;28;19997;-60
2022/07/24 06:25:23;;;;;;;;;;;18.40;99.90;;;;;;5068077;28;20275;-60
2022/07/24 06:27:49;;;;;;;;;;;18.40;99.90;;;;;;5064167;28;19921;-60
2022/07/24 06:30:17;;;;;;;;;;;18.60;99.90;;;;;;5066685;28;20482;-60
2022/07/24 06:32:43;;;;;;;;;;;18.80;99.90;;;;;;5068590;28;19967;-60
2022/07/24 06:35:08;;;;;;;;;;;18.90;99.90;;;;;;5065170;28;20261;-60
2022/07/24 06:37:34;;;;;;;;;;;19.10;99.90;;;;;;5073359;28;19941;-60
2022/07/24 06:40:00;;;;;;;;;;;19.30;99.90;;;;;;5073749;28;20328;-60
2022/07/24 06:42:26;;;;;;;;;;;19.50;99.90;;;;;;5061727;28;19921;-60
2022/07/24 06:44:51;;;;;;;;;;;19.70;99.90;;;;;;5051911;28;20062;-60
2022/07/24 06:47:17;;;;;;;;;;;19.90;99.90;;;;;;5053181;28;19925;-60
2022/07/24 06:49:42;;;;;;;;;;;20.10;99.90;;;;;;5052898;28;20358;-60
2022/07/24 06:52:08;;;;;;;612.35;576.90;;;20.10;99.90;;;;;;5052755;28;20106;-60
2022/07/24 06:54:34;;;;;;;629.95;593.28;;;20.10;99.90;;;;;;5052615;28;20037;-61
2022/07/24 06:57:00;;;;;;;563.15;531.85;;;20.10;99.90;;;;;;5051894;28;20106;-60
2022/07/24 06:59:25;;;;;;;561.83;531.30;;;20.10;99.90;;;;;;5034888;28;20072;-61
2022/07/24 07:01:51;;;;;;;687.15;645.03;;;20.20;99.90;;;;;;5051468;28;20107;-60
2022/07/24 07:04:17;;;;;;;696.45;652.78;;;20.20;99.90;;;;;;5051797;28;20119;-61
2022/07/24 07:06:43;;;;;;;731.30;684.55;;;20.20;99.90;;;;;;5052383;28;20040;-61
2022/07/24 07:09:09;;;;;;;698.38;653.60;;;20.20;99.90;;;;;;5052084;28;20045;-61
2022/07/24 07:11:34;;;;;;;758.33;706.40;;;20.20;99.90;;;;;;5051266;28;20036;-60
2022/07/24 07:14:00;;;;;;;688.53;645.25;;;20.30;99.90;;;;;;5052334;28;20041;-60
2022/07/24 07:16:26;;;;;;;754.60;705.65;;;20.40;99.90;;;;;;5051537;28;20081;-61
2022/07/24 07:18:52;;;;;;;671.75;629.88;;;20.50;99.90;;;;;;5051834;28;20057;-61
2022/07/24 07:21:18;;;;;;;711.25;666.97;;;20.70;99.90;;;;;;5051776;28;20040;-61
2022/07/24 07:23:43;;;;;;;573.10;541.10;;;20.70;99.90;;;;;;5051627;28;20502;-61
2022/07/24 07:26:09;;;;;;;645.60;605.90;;;20.90;99.90;;;;;;5051597;28;20037;-60
2022/07/24 07:28:35;;;;;;;620.00;582.58;;;21.00;99.90;;;;;;5051819;28;20053;-60
2022/07/24 07:31:01;;;;;;;682.63;641.30;;;21.00;99.90;;;;;;5051275;28;20059;-61
2022/07/24 07:33:27;;;;;;;738.83;688.97;;;21.00;99.90;;;;;;5051866;28;20059;-61
2022/07/24 07:35:53;;;;;;;671.13;629.85;;;21.00;99.90;;;;;;5052049;28;20480;-61
2022/07/24 07:38:18;;;;;;;749.08;700.97;;;21.10;99.90;;;;;;5049437;28;20464;-60
2022/07/24 07:40:44;;;;;;;636.92;599.85;;;21.20;99.90;;;;;;5040757;28;20045;-60
2022/07/24 07:43:10;;;;;;;655.72;616.78;;;21.30;99.90;;;;;;5061523;28;20056;-60
2022/07/24 07:45:36;;;;;;;628.75;591.38;;;21.30;99.90;;;;;;5063239;28;20120;-61
2022/07/24 07:48:03;;;;;;;748.85;699.75;;;21.50;99.90;;;;;;5044123;28;20050;-60
2022/07/24 07:50:29;;;;;;;740.42;692.67;;;21.70;99.90;;;;;;5064125;28;20044;-61
2022/07/24 07:52:55;;;;;;;731.10;684.28;;;21.80;99.90;;;;;;5058690;28;20451;-61
2022/07/24 07:55:21;;;;;;;721.92;675.20;;;21.80;99.90;;;;;;5072645;28;20044;-61
2022/07/24 07:57:46;;;;;;;706.88;661.55;;;21.90;99.90;;;;;;5072993;28;20040;-61
2022/07/24 08:00:13;;;;;;;734.63;685.13;;;22.00;99.90;;;;;;5071363;28;20063;-60
2022/07/24 08:02:39;;;;;;;746.35;694.25;;;21.90;99.90;;;;;;5073076;28;20052;-61
2022/07/24 08:05:06;;;;;;;669.15;628.28;;;21.90;99.90;;;;;;5066835;28;20036;-61
2022/07/24 08:07:32;;;;;;;666.05;626.17;;;22.10;99.90;;;;;;5036659;28;20041;-61
2022/07/24 08:09:58;;;;;;;699.83;655.58;;;22.30;99.90;;;;;;5068218;28;20053;-60
2022/07/24 08:12:24;;;;;;;803.72;749.25;;;22.50;99.90;;;;;;5072236;28;20045;-61
2022/07/24 08:14:49;;;;;;;771.45;718.17;;;22.70;99.90;;;;;;5071676;28;20055;-60
2022/07/24 08:17:15;;;;;;;707.80;658.63;;;22.90;99.90;;;;;;5071279;28;20044;-61
2022/07/24 08:19:41;;;;;;;737.67;688.15;;;23.00;99.90;;;;;;5072761;28;20049;-61
2022/07/24 08:22:08;;;;;;;678.95;633.90;;;23.10;99.90;;;;;;5070901;28;20170;-61
2022/07/24 08:24:34;;;;;;;535.28;499.02;;;23.00;99.90;;;;;;5072618;28;20085;-60
2022/07/24 08:27:00;;;;;;;700.28;654.28;;;22.70;99.90;;;;;;5072426;28;20044;-60
2022/07/24 08:29:26;;;;;;;755.35;704.00;;;22.60;99.90;;;;;;5064459;28;20124;-61
2022/07/24 08:31:52;;;;;;;598.03;562.05;;;22.60;99.90;;;;;;5062618;28;20037;-61
2022/07/24 08:34:18;;;;;;;650.00;609.20;;;22.40;99.90;;;;;;5070304;28;20478;-60
2022/07/24 08:36:45;;;;;;;653.25;611.78;;;22.30;99.90;;;;;;5069120;28;20035;-61
2022/07/24 08:39:12;;;;;;;767.13;701.00;;;22.20;99.90;;;;;;5063919;28;20426;-60
2022/07/24 08:41:38;;;;;;;631.65;591.30;;;22.10;99.90;;;;;;5063455;28;20044;-61
2022/07/24 08:44:05;;;;;;;838.22;779.88;;;22.20;99.90;;;;;;5037841;28;20142;-61
2022/07/24 08:46:32;;;;;;;696.45;650.63;;;22.30;99.90;;;;;;5043115;28;20049;-61
2022/07/24 08:48:58;;;;;;;506.25;476.42;;;22.60;99.90;;;;;;5041153;28;20060;-61
2022/07/24 08:51:33;;;;;;;641.92;600.45;;;22.70;99.90;;;;;;5050303;28;20049;-60
2022/07/24 08:53:59;;;;;;;497.00;466.02;;;23.00;99.90;;;;;;5049416;28;20049;-61
2022/07/24 08:56:26;;;;;;;542.25;510.67;;;23.20;99.90;;;;;;5048036;28;20135;-61
2022/07/24 08:58:52;;;;;;;445.50;415.52;;;23.30;99.90;;;;;;5048965;28;20059;-61
2022/07/24 09:01:18;;;;;;;483.02;452.17;;;23.60;99.90;;;;;;5032264;28;20044;-61
2022/07/24 09:03:45;;;;;;;609.20;571.58;;;23.70;99.90;;;;;;5050075;28;20495;-61
2022/07/24 09:06:13;;;;;;;618.65;581.85;;;23.80;99.90;;;;;;5052396;28;20063;-61
2022/07/24 09:08:41;;;;;;;571.40;537.78;;;23.90;99.90;;;;;;5050254;28;20041;-61
2022/07/24 09:11:09;;;;;;;441.42;417.52;;;24.10;99.90;;;;;;5047529;28;20041;-61
2022/07/24 09:16:23;;;;;;;442.83;419.58;;;23.80;99.50;;;;;;5050057;28;20429;-61
2022/07/24 09:18:51;;;;;;;306.38;291.25;;;23.60;99.90;;;;;;5071924;28;20076;-61
2022/07/24 09:21:17;;;;;;;224.30;213.93;;;23.40;99.90;;;;;;5069703;28;20083;-61
2022/07/24 09:23:44;;;;;;;312.42;297.63;;;23.40;99.90;;;;;;5055818;28;20068;-61
2022/07/24 09:26:11;;;;;;;156.73;149.57;;;23.60;99.90;;;;;;5054951;28;20095;-61
2022/07/24 09:28:51;;;;;;;170.70;162.88;;;23.70;99.90;;;;;;5054293;28;20041;-61
2022/07/24 09:31:17;;;;;;;243.50;231.25;;;23.60;99.90;;;;;;5052525;28;20069;-61
2022/07/24 09:33:43;;;;;;;163.07;155.02;;;23.70;99.80;;;;;;5054444;28;20060;-61
2022/07/24 09:36:15;;;;;;;325.85;307.30;;;23.60;99.80;;;;;;5053934;28;20033;-61
2022/07/24 09:38:47;;;;;;;162.30;154.50;;;23.60;99.00;;;;;;5054510;28;20084;-61
2022/07/24 09:41:21;;;;;;;246.65;233.07;;;24.00;99.90;;;;;;5057445;28;20044;-61
2022/07/24 09:43:57;;;;;;;210.52;199.38;;;24.20;99.50;;;;;;5093899;28;20085;-61
2022/07/24 09:46:25;;;;;;;330.45;310.15;;;24.30;98.40;;;;;;5091288;28;20063;-61
2022/07/24 09:48:54;;;;;;;389.08;362.40;;;24.20;97.90;;;;;;5090655;28;20478;-61
2022/07/24 09:51:20;;;;;;;346.00;328.92;;;23.90;98.00;;;;;;5084896;28;20386;-61
2022/07/24 09:53:51;;;;;;;424.05;400.55;;;24.00;99.20;;;;;;5076352;28;20126;-61
2022/07/24 09:56:18;;;;;;;412.73;390.13;;;24.20;98.90;;;;;;5095081;28;20134;-61
2022/07/24 09:58:48;;;;;;;329.88;314.17;;;24.70;99.90;;;;;;5091744;28;20115;-61
2022/07/24 10:01:17;;;;;;;362.30;344.92;;;24.50;99.60;;;;;;5074796;28;20133;-61
2022/07/24 10:03:45;;;;;;;437.88;411.70;;;24.70;98.60;;;;;;5074892;28;20041;-61
2022/07/24 10:06:14;;;;;;;469.20;444.30;;;24.70;98.10;;;;;;5073554;28;20090;-61
2022/07/24 10:08:42;;;;;;;403.10;381.17;;;25.00;98.60;;;;;;5073994;28;20051;-61
2022/07/24 10:11:09;;;;;;;461.98;429.15;;;25.30;99.90;;;;;;5074620;28;20106;-61
2022/07/24 10:13:35;;;;;;;379.63;354.00;;;25.10;97.30;;;;;;5073194;28;20071;-61
2022/07/24 10:16:12;;;;;;;524.03;482.48;;;24.80;96.80;;;;;;5074797;28;20036;-61
2022/07/24 10:18:46;;;;;;;340.50;323.67;;;24.80;98.30;;;;;;5074400;28;20399;-61
2022/07/24 10:21:18;;;;;;;358.73;340.33;;;24.80;98.10;;;;;;5073174;28;20119;-61
2022/07/24 10:23:45;;;;;;;;;;;24.80;98.30;;;;;;5074833;28;20036;-61
2022/07/24 10:26:15;;;;;;;357.00;337.17;;;24.70;96.10;;;;;;5074128;28;19928;-61
2022/07/24 10:28:42;;;;;;;432.58;404.70;;;24.80;98.10;;;;;;5073399;28;20051;-61
2022/07/24 10:31:11;;;;;;;477.45;448.92;;;25.00;97.80;;;;;;5055998;28;20049;-61
2022/07/24 10:33:38;;;;;;;498.65;470.48;;;;;;;;;;5052894;28;20098;-61
2022/07/24 10:36:14;;;;;;;592.83;556.80;;;25.80;97.40;;;;;;5071303;28;20040;-61
2022/07/24 10:38:44;;;;;;;553.85;519.30;;;26.10;95.90;;;;;;5055941;28;20440;-61
2022/07/24 10:41:16;;;;;;;531.65;497.02;;;26.20;96.60;;;;;;5073261;28;20078;-61
2022/07/24 10:44:12;;;;;;;350.80;332.52;;;26.00;95.00;;;;;;5072892;28;20494;-61
2022/07/24 10:46:58;;;;;;;396.90;374.73;;;25.90;97.00;;;;;;5073478;28;20494;-61
2022/07/24 10:49:44;;;;;;;386.13;365.52;;;25.60;96.90;;;;;;5035000;28;20049;-61
2022/07/24 10:52:28;;;;;;;523.92;490.50;;;25.60;96.50;;;;;;5065737;28;20135;-61
2022/07/24 10:55:30;;;;;;;419.98;395.48;;;25.70;96.70;;;;;;5061546;28;20067;-61
2022/07/24 10:58:10;;;;;;;303.55;288.63;;;25.80;96.90;;;;;;5069482;28;20041;-61
2022/07/24 11:00:40;;;;;;;407.00;381.75;;;25.90;96.00;;;;;;5055008;28;20103;-61
2022/07/24 11:03:17;;;;;;;532.28;498.45;;;25.80;95.30;;;;;;5083463;28;20483;-61
2022/07/24 11:05:42;;;;;;;688.08;627.83;;;25.60;94.80;;;;;;5073251;28;20080;-61
2022/07/24 11:08:16;;;;;;;638.58;591.20;;;25.70;94.60;;;;;;5071233;28;20083;-61
2022/07/24 11:10:51;;;;;;;353.05;330.77;;;26.40;94.20;;;;;;5071285;28;20059;-61
2022/07/24 11:13:41;;;;;;;398.27;375.58;;;26.40;94.30;;;;;;5073007;28;20057;-61
2022/07/24 11:16:16;;;;;;;486.23;450.45;;;26.20;95.20;;;;;;5072651;28;20044;-60
2022/07/24 11:19:02;;;;;;;342.02;320.77;;;25.90;94.70;;;;;;5072823;28;20474;-61
2022/07/24 11:21:30;;;;;;;360.05;340.30;;;25.80;95.60;;;;;;5072990;28;20051;-61
2022/07/24 11:24:21;;;;;;;472.00;442.35;;;25.80;96.80;;;;;;5072543;28;20052;-61
2022/07/24 11:26:53;;;;;;;484.98;450.48;;;25.50;95.20;;;;;;5054987;28;20063;-61
2022/07/24 11:29:23;;;;;;;395.33;369.88;;;25.50;95.40;;;;;;5061576;28;20045;-61
2022/07/24 11:31:50;;;;;;;581.33;537.35;;;25.50;95.70;;;;;;5052137;28;20045;-61
2022/07/24 11:34:17;;;;;;;435.70;408.70;;;25.40;95.60;;;;;;5066347;28;20044;-61
2022/07/24 11:36:47;;;;;;;453.27;428.17;;;25.50;96.00;;;;;;5072723;28;20067;-61
2022/07/24 11:39:14;;;;;;;401.45;375.73;;;26.10;96.00;;;;;;5072465;28;20044;-61
2022/07/24 11:41:45;;;;;;;417.70;390.70;;;26.10;94.30;;;;;;5072167;28;20044;-61
2022/07/24 11:44:12;;;;;;;333.40;316.27;;;26.10;94.70;;;;;;5071967;28;20056;-61
2022/07/24 11:46:39;;;;;;;449.00;424.02;;;26.00;95.80;;;;;;5072447;28;20048;-61
2022/07/24 11:49:08;;;;;;;400.67;375.70;;;26.10;94.90;;;;;;5072380;28;20048;-61
2022/07/24 11:51:45;;;;;;;454.95;428.52;;;26.40;94.00;;;;;;5072213;28;20088;-61
2022/07/24 11:54:13;;;;;;;359.60;340.98;;;27.00;94.70;;;;;;5072555;28;20422;-61
2022/07/24 11:56:40;;;;;;;292.42;277.70;;;27.00;93.20;;;;;;5072507;28;20546;-61
2022/07/24 11:59:20;;;;;;;337.55;319.88;;;27.20;94.10;;;;;;5053947;28;20445;-61
2022/07/24 12:01:46;;;;;;;423.10;394.77;;;27.30;93.90;;;;;;5053295;28;20048;-61
2022/07/24 12:04:11;;;;;;;380.45;357.85;;;27.60;92.60;;;;;;5073114;28;20036;-61
2022/07/24 12:06:37;;;;;;;584.92;535.75;;;27.80;92.60;;;;;;5071917;28;20136;-61
2022/07/24 12:09:07;;;;;;;266.48;250.60;;;27.40;91.00;;;;;;5072981;28;20094;-61
2022/07/24 12:11:35;;;;;;;356.88;337.50;;;27.00;91.70;;;;;;5074678;28;20047;-61
2022/07/24 12:14:04;;;;;;;370.05;349.85;;;26.70;94.40;;;;;;5092136;28;20083;-61
2022/07/24 12:16:29;;;;;;;245.35;231.55;;;26.60;93.50;;;;;;5074249;28;20490;-61
2022/07/24 12:19:12;;;;;;;343.52;325.70;;;26.50;92.00;;;;;;5074703;28;20052;-61